createdAt,value
2022-10-27T00:01:57.225Z,13.10
2022-10-27T00:04:59.735Z,13.05
2022-10-27T00:08:02.103Z,13.32
2022-10-27T00:11:06.596Z,12.80
2022-10-27T00:14:09.036Z,14.00
2022-10-27T00:17:11.557Z,13.05
2022-10-27T00:20:13.966Z,12.60
2022-10-27T00:23:16.461Z,13.40
2022-10-27T00:26:20.962Z,13.25
2022-10-27T00:29:23.559Z,13.05
2022-10-27T00:32:26.032Z,13.05
2022-10-27T00:35:28.694Z,13.27
2022-10-27T00:38:30.910Z,13.13
2022-10-27T00:41:36.648Z,13.90
2022-10-27T00:44:41.637Z,13.77
2022-10-27T00:47:44.197Z,14.38
2022-10-27T00:50:46.989Z,13.38
2022-10-27T00:53:50.010Z,13.83
2022-10-27T00:56:53.920Z,14.18
2022-10-27T00:59:58.186Z,14.20
2022-10-27T01:03:00.468Z,14.20
2022-10-27T01:06:03.306Z,14.32
2022-10-27T01:09:06.404Z,14.00
2022-10-27T01:12:09.507Z,14.48
2022-10-27T01:15:12.438Z,14.10
2022-10-27T01:18:27.206Z,15.23
2022-10-27T01:21:38.554Z,14.10
2022-10-27T01:25:10.465Z,14.02
2022-10-27T01:28:30.744Z,13.20
2022-10-27T01:31:41.744Z,13.62
2022-10-27T01:34:50.045Z,13.57
2022-10-27T01:38:10.408Z,14.73
2022-10-27T01:41:22.543Z,14.02
2022-10-27T01:44:31.845Z,14.68
2022-10-27T01:47:34.400Z,14.35
2022-10-27T01:50:56.845Z,13.73
2022-10-27T01:54:03.673Z,14.10
2022-10-27T01:57:27.430Z,14.52
2022-10-27T02:00:33.631Z,13.88
2022-10-27T02:03:43.263Z,14.77
2022-10-27T02:07:13.973Z,14.38
2022-10-27T02:10:22.990Z,13.95
2022-10-27T02:13:25.631Z,14.30
2022-10-27T02:16:31.748Z,13.82
2022-10-27T02:19:36.970Z,14.52
2022-10-27T02:22:41.903Z,13.85
2022-10-27T02:26:00.426Z,14.50
2022-10-27T02:29:09.754Z,14.15
2022-10-27T02:32:16.748Z,14.68
2022-10-27T02:35:20.146Z,14.65
2022-10-27T02:38:22.497Z,15.37
2022-10-27T02:41:25.119Z,16.35
2022-10-27T02:44:27.358Z,18.65
2022-10-27T02:47:29.949Z,15.82
2022-10-27T02:50:32.311Z,14.75
2022-10-27T02:53:34.911Z,14.60
2022-10-27T02:56:37.196Z,14.95
2022-10-27T02:59:39.689Z,15.52
2022-10-27T03:02:41.881Z,15.52
2022-10-27T03:05:45.599Z,15.70
2022-10-27T03:08:50.572Z,14.77
2022-10-27T03:11:53.177Z,15.48
2022-10-27T03:14:55.410Z,15.07
2022-10-27T03:17:57.994Z,15.15
2022-10-27T03:21:00.190Z,20.23
2022-10-27T03:24:02.813Z,18.95
2022-10-27T03:27:05.093Z,14.98
2022-10-27T03:30:15.820Z,14.87
2022-10-27T03:33:18.115Z,14.65
2022-10-27T03:36:20.670Z,18.55
2022-10-27T03:39:22.911Z,20.27
2022-10-27T03:42:25.793Z,17.10
2022-10-27T03:45:28.578Z,15.68
2022-10-27T03:48:31.117Z,17.57
2022-10-27T03:51:33.329Z,15.77
2022-10-27T03:54:35.866Z,16.90
2022-10-27T03:57:38.283Z,17.35
2022-10-27T04:00:41.588Z,16.45
2022-10-27T04:03:44.074Z,15.85
2022-10-27T04:06:46.554Z,17.08
2022-10-27T04:09:49.118Z,17.45
2022-10-27T04:12:53.722Z,17.73
2022-10-27T04:15:59.834Z,16.85
2022-10-27T04:19:02.041Z,18.15
2022-10-27T04:22:04.542Z,17.30
2022-10-27T04:25:07.506Z,16.58
2022-10-27T04:28:10.144Z,17.45
2022-10-27T04:31:12.350Z,17.08
2022-10-27T04:34:14.883Z,17.60
2022-10-27T04:37:17.142Z,17.25
2022-10-27T04:40:19.627Z,18.00
2022-10-27T04:43:21.863Z,17.02
2022-10-27T04:46:24.393Z,16.75
2022-10-27T04:49:26.600Z,17.50
2022-10-27T04:52:29.274Z,17.73
2022-10-27T04:55:33.131Z,17.42
2022-10-27T04:58:35.712Z,17.95
2022-10-27T05:01:39.498Z,17.30
2022-10-27T05:04:42.152Z,16.15
2022-10-27T05:07:51.567Z,16.33
2022-10-27T05:10:54.079Z,15.65
2022-10-27T05:13:56.289Z,16.08
2022-10-27T05:16:58.898Z,16.27
2022-10-27T05:20:01.160Z,16.52
2022-10-27T05:23:03.687Z,15.75
2022-10-27T05:26:09.547Z,16.30
2022-10-27T05:29:30.124Z,15.38
2022-10-27T05:32:34.848Z,15.95
2022-10-27T05:35:37.394Z,16.65
2022-10-27T05:38:39.627Z,16.23
2022-10-27T05:41:42.429Z,17.50
2022-10-27T05:44:44.808Z,16.60
2022-10-27T05:47:47.454Z,16.12
2022-10-27T05:50:54.027Z,16.77
2022-10-27T05:53:57.958Z,14.95
2022-10-27T05:57:00.319Z,17.05
2022-10-27T06:00:03.489Z,15.38
2022-10-27T06:03:19.966Z,16.37
2022-10-27T06:06:22.479Z,16.40
2022-10-27T06:09:24.711Z,15.48
2022-10-27T06:12:27.166Z,16.33
2022-10-27T06:15:30.409Z,16.35
2022-10-27T06:18:33.572Z,17.25
2022-10-27T06:21:35.799Z,16.83
2022-10-27T06:24:38.391Z,15.85
2022-10-27T06:27:40.788Z,15.80
2022-10-27T06:30:46.118Z,16.25
2022-10-27T06:33:48.456Z,16.33
2022-10-27T06:36:50.932Z,16.95
2022-10-27T06:39:57.337Z,17.02
2022-10-27T06:43:08.407Z,16.50
2022-10-27T06:46:10.922Z,17.48
2022-10-27T06:49:15.520Z,19.08
2022-10-27T06:52:19.959Z,17.83
2022-10-27T06:55:22.589Z,18.58
2022-10-27T06:58:24.907Z,17.42
2022-10-27T07:01:27.903Z,17.55
2022-10-27T07:04:30.673Z,17.60
2022-10-27T07:07:33.634Z,18.13
2022-10-27T07:10:35.963Z,16.15
2022-10-27T07:13:38.565Z,16.10
2022-10-27T07:16:40.942Z,15.70
2022-10-27T07:19:43.436Z,15.43
2022-10-27T07:22:45.686Z,15.68
2022-10-27T07:25:49.450Z,15.40
2022-10-27T07:28:51.789Z,15.68
2022-10-27T07:31:54.313Z,15.32
2022-10-27T07:34:59.323Z,14.93
2022-10-27T07:38:02.139Z,14.10
2022-10-27T07:41:04.712Z,14.65
2022-10-27T07:44:07.257Z,14.48
2022-10-27T07:47:09.497Z,15.73
2022-10-27T07:50:13.234Z,14.75
2022-10-27T07:53:16.327Z,16.42
2022-10-27T07:56:19.175Z,15.77
2022-10-27T07:59:21.489Z,16.10
2022-10-27T08:02:24.090Z,15.45
2022-10-27T08:05:27.130Z,15.38
2022-10-27T08:08:30.153Z,17.80
2022-10-27T08:11:32.742Z,17.27
2022-10-27T08:14:35.010Z,16.30
2022-10-27T08:17:39.232Z,16.55
2022-10-27T08:23:45.318Z,16.03
2022-10-27T08:26:49.372Z,16.02
2022-10-27T08:29:51.986Z,16.48
2022-10-27T08:32:59.397Z,17.67
2022-10-27T08:36:02.688Z,18.48
2022-10-27T08:39:12.807Z,18.17
2022-10-27T08:42:47.338Z,18.08
2022-10-27T08:46:02.033Z,17.10
2022-10-27T08:52:55.190Z,17.60
2022-10-27T08:56:04.492Z,31.20
2022-10-27T08:59:14.501Z,18.87
2022-10-27T09:02:50.677Z,16.80
2022-10-27T09:06:17.832Z,16.25
2022-10-27T09:09:50.763Z,16.75
2022-10-27T09:13:07.943Z,17.40
2022-10-27T09:16:16.752Z,16.12
2022-10-27T09:19:34.389Z,17.42
2022-10-27T09:22:41.663Z,18.33
2022-10-27T09:25:47.708Z,17.42
2022-10-27T09:28:52.290Z,18.48
2022-10-27T09:32:06.701Z,18.40
2022-10-27T09:35:16.498Z,19.55
2022-10-27T09:38:25.857Z,19.25
2022-10-27T09:41:28.482Z,19.40
2022-10-27T09:44:30.739Z,18.48
2022-10-27T09:47:39.831Z,17.73
2022-10-27T09:51:12.870Z,18.42
2022-10-27T09:54:32.687Z,18.10
2022-10-27T09:57:38.775Z,17.80
2022-10-27T10:00:42.670Z,19.00
2022-10-27T10:07:01.449Z,18.55
2022-10-27T10:10:27.208Z,18.20
2022-10-27T10:13:34.266Z,18.50
2022-10-27T10:16:36.863Z,18.30
2022-10-27T10:19:46.465Z,24.45
2022-10-27T10:22:51.199Z,23.48
2022-10-27T10:25:58.217Z,18.48
2022-10-27T10:29:18.041Z,18.40
2022-10-27T10:32:29.924Z,18.48
2022-10-27T10:35:42.746Z,18.58
2022-10-27T10:38:50.848Z,19.05
2022-10-27T10:42:15.853Z,18.90
2022-10-27T10:45:23.486Z,17.52
2022-10-27T10:48:47.207Z,18.83
2022-10-27T10:51:58.153Z,18.45
2022-10-27T10:55:16.676Z,18.80
2022-10-27T10:58:21.720Z,18.62
2022-10-27T11:01:39.914Z,20.05
2022-10-27T11:04:44.563Z,19.25
2022-10-27T11:07:49.094Z,19.45
2022-10-27T11:10:55.835Z,19.08
2022-10-27T11:14:07.824Z,18.45
2022-10-27T11:17:10.852Z,18.95
2022-10-27T11:20:21.958Z,19.83
2022-10-27T11:23:49.352Z,18.48
2022-10-27T11:27:13.172Z,21.17
2022-10-27T11:30:24.743Z,19.70
2022-10-27T11:33:56.424Z,19.35
2022-10-27T11:37:29.723Z,20.12
2022-10-27T11:40:51.261Z,19.20
2022-10-27T11:44:08.829Z,18.87
2022-10-27T11:47:20.929Z,19.08
2022-10-27T11:50:46.204Z,18.33
2022-10-27T11:53:51.820Z,18.30
2022-10-27T11:57:38.659Z,18.80
2022-10-27T12:01:00.472Z,21.80
2022-10-27T12:04:32.147Z,20.73
2022-10-27T12:08:07.913Z,17.52
2022-10-27T12:11:20.658Z,17.15
2022-10-27T12:14:53.619Z,17.83
2022-10-27T12:18:13.072Z,18.52
2022-10-27T12:21:23.478Z,30.90
2022-10-27T12:24:35.548Z,18.55
2022-10-27T12:27:41.854Z,18.58
2022-10-27T12:30:47.965Z,19.50
2022-10-27T12:34:03.280Z,17.95
2022-10-27T12:37:16.427Z,18.33
2022-10-27T12:40:38.575Z,19.30
2022-10-27T12:44:20.748Z,18.70
2022-10-27T12:47:36.019Z,18.08
2022-10-27T12:51:17.339Z,18.80
2022-10-27T12:54:44.142Z,19.65
2022-10-27T12:57:53.159Z,18.75
2022-10-27T13:01:02.582Z,20.27
2022-10-27T13:04:33.305Z,23.05
2022-10-27T13:07:57.296Z,22.20
2022-10-27T13:11:25.094Z,24.60
2022-10-27T13:15:01.412Z,30.98
2022-10-27T13:18:37.258Z,24.17
2022-10-27T13:21:52.073Z,24.73
2022-10-27T13:25:16.251Z,24.00
2022-10-27T13:28:42.039Z,23.92
2022-10-27T13:31:44.684Z,22.75
2022-10-27T13:35:02.470Z,23.90
2022-10-27T13:38:21.314Z,24.58
2022-10-27T13:42:01.115Z,21.52
2022-10-27T13:45:30.026Z,21.85
2022-10-27T13:48:34.239Z,22.27
2022-10-27T13:51:49.049Z,22.05
2022-10-27T13:55:03.997Z,21.52
2022-10-27T13:58:18.694Z,20.88
2022-10-27T14:01:27.243Z,20.73
2022-10-27T14:04:46.970Z,20.98
2022-10-27T14:07:49.823Z,19.70
2022-10-27T14:10:54.938Z,19.43
2022-10-27T14:14:05.458Z,20.58
2022-10-27T14:17:21.117Z,20.00
2022-10-27T14:20:32.055Z,19.73
2022-10-27T14:23:34.740Z,19.62
2022-10-27T14:26:37.991Z,20.65
2022-10-27T14:29:40.612Z,31.05
2022-10-27T14:32:42.944Z,20.62
2022-10-27T14:35:45.637Z,18.10
2022-10-27T14:39:04.882Z,18.08
2022-10-27T14:42:19.672Z,18.42
2022-10-27T14:45:23.912Z,17.75
2022-10-27T14:48:30.431Z,17.77
2022-10-27T14:51:38.162Z,18.12
2022-10-27T14:54:47.308Z,17.77
2022-10-27T14:57:51.556Z,17.08
2022-10-27T15:00:54.767Z,22.37
2022-10-27T15:03:58.497Z,19.62
2022-10-27T15:07:03.032Z,18.35
2022-10-27T15:10:06.100Z,18.15
2022-10-27T15:13:18.208Z,17.35
2022-10-27T15:16:24.608Z,16.75
2022-10-27T15:19:27.615Z,15.80
2022-10-27T15:22:30.149Z,16.20
2022-10-27T15:25:33.176Z,16.15
2022-10-27T15:28:36.964Z,15.05
2022-10-27T15:31:43.299Z,15.57
2022-10-27T15:34:45.646Z,15.85
2022-10-27T15:37:48.159Z,15.02
2022-10-27T15:40:52.000Z,17.83
2022-10-27T15:44:03.629Z,15.07
2022-10-27T15:47:42.204Z,14.98
2022-10-27T15:51:00.407Z,14.38
2022-10-27T15:54:02.881Z,14.02
2022-10-27T15:57:33.509Z,14.27
2022-10-27T16:00:35.779Z,13.77
2022-10-27T16:03:56.269Z,14.05
2022-10-27T16:07:29.385Z,13.35
2022-10-27T16:10:33.555Z,13.55
2022-10-27T16:16:38.702Z,14.10
2022-10-27T16:19:42.171Z,14.02
2022-10-27T16:22:45.924Z,14.50
2022-10-27T16:25:49.175Z,14.98
2022-10-27T16:28:55.828Z,16.02
2022-10-27T16:32:02.517Z,15.27
2022-10-27T16:35:05.414Z,15.82
2022-10-27T16:38:10.287Z,16.37
2022-10-27T16:41:27.426Z,15.77
2022-10-27T16:44:29.735Z,16.02
2022-10-27T16:47:32.327Z,15.57
2022-10-27T16:50:37.285Z,16.25
2022-10-27T16:53:55.832Z,15.32
2022-10-27T16:56:58.358Z,16.10
2022-10-27T17:00:00.640Z,15.45
2022-10-27T17:03:03.228Z,15.75
2022-10-27T17:06:06.052Z,15.85
2022-10-27T17:09:09.487Z,16.33
2022-10-27T17:12:11.715Z,16.62
2022-10-27T17:15:14.333Z,15.43
2022-10-27T17:18:16.585Z,14.57
2022-10-27T17:21:19.166Z,16.02
2022-10-27T17:24:21.478Z,19.05
2022-10-27T17:27:23.988Z,18.48
2022-10-27T17:30:26.398Z,16.27
2022-10-27T17:33:29.241Z,16.08
2022-10-27T17:36:31.544Z,16.10
2022-10-27T17:39:34.132Z,15.85
2022-10-27T17:42:36.503Z,15.48
2022-10-27T17:45:39.194Z,16.25
2022-10-27T17:48:44.955Z,15.60
2022-10-27T17:51:50.332Z,17.35
2022-10-27T17:54:52.845Z,17.27
2022-10-27T17:57:55.533Z,16.37
2022-10-27T18:01:17.567Z,15.93
2022-10-27T18:04:21.254Z,15.43
2022-10-27T18:07:24.540Z,15.55
2022-10-27T18:10:27.088Z,15.07
2022-10-27T18:13:34.712Z,14.60
2022-10-27T18:16:39.723Z,15.80
2022-10-27T18:19:41.986Z,15.68
2022-10-27T18:22:44.713Z,15.35
2022-10-27T18:25:47.034Z,14.77
2022-10-27T18:28:50.079Z,15.10
2022-10-27T18:31:52.323Z,14.20
2022-10-27T18:34:54.996Z,15.35
2022-10-27T18:37:58.909Z,14.80
2022-10-27T18:41:05.065Z,14.40
2022-10-27T18:44:08.404Z,14.93
2022-10-27T18:47:10.949Z,14.00
2022-10-27T18:50:13.342Z,17.25
2022-10-27T18:53:16.258Z,33.20
2022-10-27T18:56:18.652Z,20.95
2022-10-27T18:59:21.209Z,17.85
2022-10-27T19:02:23.604Z,15.98
2022-10-27T19:05:26.246Z,14.90
2022-10-27T19:08:29.302Z,14.63
2022-10-27T19:11:35.220Z,15.20
2022-10-27T19:14:37.684Z,15.27
2022-10-27T19:17:41.108Z,15.18
2022-10-27T19:20:46.418Z,14.47
2022-10-27T19:23:58.130Z,16.25
2022-10-27T19:27:03.475Z,18.77
2022-10-27T19:30:11.189Z,18.23
2022-10-27T19:33:19.439Z,17.77
2022-10-27T19:36:29.894Z,17.58
2022-10-27T19:39:44.508Z,17.02
2022-10-27T19:42:47.064Z,17.67
2022-10-27T19:45:50.431Z,16.67
2022-10-27T19:48:55.079Z,15.98
2022-10-27T19:51:57.755Z,17.17
2022-10-27T19:55:00.321Z,17.08
2022-10-27T19:58:03.360Z,16.42
2022-10-27T20:01:16.876Z,18.45
2022-10-27T20:07:22.783Z,17.35
2022-10-27T20:10:25.416Z,17.20
2022-10-27T20:13:27.649Z,18.37
2022-10-27T20:16:33.733Z,17.83
2022-10-27T20:19:38.238Z,20.27
2022-10-27T20:22:41.001Z,18.02
2022-10-27T20:25:43.273Z,18.15
2022-10-27T20:28:45.851Z,17.60
2022-10-27T20:31:48.851Z,18.83
2022-10-27T20:34:51.952Z,18.15
2022-10-27T20:37:54.211Z,18.25
2022-10-27T20:40:56.788Z,16.77
2022-10-27T20:44:00.643Z,17.35
2022-10-27T20:47:03.222Z,16.12
2022-10-27T20:50:06.067Z,17.42
2022-10-27T20:53:08.618Z,16.98
2022-10-27T20:56:16.205Z,16.55
2022-10-27T20:59:21.278Z,16.48
2022-10-27T21:02:26.390Z,17.15
2022-10-27T21:05:29.023Z,17.45
2022-10-27T21:08:31.332Z,17.08
2022-10-27T21:11:34.760Z,17.17
2022-10-27T21:14:37.018Z,17.67
2022-10-27T21:17:39.601Z,19.12
2022-10-27T21:20:41.885Z,17.83
2022-10-27T21:23:44.369Z,17.67
2022-10-27T21:26:46.699Z,17.37
2022-10-27T21:29:49.202Z,17.73
2022-10-27T21:32:53.505Z,17.42
2022-10-27T21:35:56.169Z,17.62
2022-10-27T21:38:58.471Z,17.65
2022-10-27T21:42:00.976Z,16.62
2022-10-27T21:45:03.627Z,17.52
2022-10-27T21:48:06.580Z,18.80
2022-10-27T21:51:11.707Z,17.35
2022-10-27T21:54:14.299Z,15.95
2022-10-27T21:57:16.600Z,15.63
2022-10-27T22:00:19.234Z,14.95
2022-10-27T22:03:21.835Z,16.08
2022-10-27T22:06:33.075Z,15.35
2022-10-27T22:09:35.587Z,15.43
2022-10-27T22:12:37.900Z,15.50
2022-10-27T22:15:40.408Z,15.98
2022-10-27T22:18:46.763Z,16.65
2022-10-27T22:21:50.540Z,15.82
2022-10-27T22:24:53.393Z,15.43
2022-10-27T22:27:55.919Z,17.43
2022-10-27T22:30:58.225Z,14.93
2022-10-27T22:34:01.993Z,16.37
2022-10-27T22:37:04.250Z,17.90
2022-10-27T22:40:07.731Z,15.88
2022-10-27T22:43:10.037Z,15.85
2022-10-27T22:46:21.684Z,15.02
2022-10-27T22:49:23.986Z,16.85
2022-10-27T22:52:26.436Z,15.57
2022-10-27T22:55:28.697Z,15.35
2022-10-27T22:58:31.372Z,15.77
2022-10-27T23:01:37.318Z,15.47
2022-10-27T23:04:39.876Z,16.35
2022-10-27T23:07:42.102Z,15.63
2022-10-27T23:10:44.681Z,15.60
2022-10-27T23:13:46.982Z,14.75
2022-10-27T23:16:49.444Z,15.60
2022-10-27T23:19:52.230Z,13.88
2022-10-27T23:22:55.039Z,13.17
2022-10-27T23:25:58.308Z,13.25
2022-10-27T23:29:03.171Z,14.00
2022-10-27T23:32:05.897Z,15.60
2022-10-27T23:35:08.738Z,14.43
2022-10-27T23:38:10.983Z,15.07
2022-10-27T23:41:13.706Z,15.27
2022-10-27T23:44:15.956Z,15.73
2022-10-27T23:47:18.439Z,15.10
2022-10-27T23:50:20.886Z,14.00
2022-10-27T23:53:23.584Z,14.63
2022-10-27T23:56:26.529Z,14.23
2022-10-27T23:59:29.089Z,14.85
